Abbott, MS

5:02 AM CDT on September 16, 2014 (GMT -0500)
WestWood II | Change Station
CLOSE
Current Station
Personal Weather Station
Location: West Point, MS
Elevation: 240 ft
Nearby Weather Stations

Elev 240 ft 33.61 °N, 88.68 °W | Updated 1 second ago

Overcast
Overcast
71.4 °F
Feels Like 71.4 °F
N
0.0
Wind Variable Wind from NW
Gusts 0.0 mph

Today
High -- | Low -- °F
--% Chance of Precip.
Yesterday
High -- | Low -- °F
Precip. -- in
6:38 AM 6:59 PM
Waning Gibbous, 47% visible
Pressure 30.09 in
Visibility 10.0 miles
Clouds Overcast 11000 ft
Dew Point 67 °F
Humidity 87%
Rainfall 0.00 in
Snow Depth Not available.
UV 0 out of 12
Pollen 8.50 out of 12
Air Quality Not available.
Flu Activity Not available.
METAR KCBM 160958Z AUTO 30003KT 10SM OVC110 22/22 A3009 RMK AO2 SLP190 T02210216 $

More Conditions Fewer Conditions

Pressure 30.09 in
Visibility 10.0 miles
Clouds Overcast 11000 ft
Dew Point 67 °F
Humidity 87%
Rainfall 0.00 in
Snow Depth Not available.
UV 0 out of 12
Pollen 8.50 out of 12
Air Quality Not available.
Flu Activity Not available.
METAR KCBM 160958Z AUTO 30003KT 10SM OVC110 22/22 A3009 RMK AO2 SLP190 T02210216 $

More Conditions Fewer Conditions

10-Day Weather Forecast

Almanac

Astronomy

Sep. 16, 2014 Rise Set
Actual Time 6:38 AM CDT 6:59 PM CDT
Civil Twilight 6:13 AM CDT 7:24 PM CDT
Nautical Twilight 5:44 AM CDT 7:53 PM CDT
Astronomical Twilight 5:14 AM CDT 8:23 PM CDT
Moon 12:00 AM CDT 2:11 PM CDT
Length of Visible Light 13h 10m
Length of Day
12h 20m
Tomorrow will be 2m 3s shorter.
Waning Gibbous, 47% of the Moon is Illuminated
Today
Waning Gibbous
Sep 24
New
Oct 1
First Quarter
Oct 8
Full
Oct 15
Last Quarter

Today's Extremes

State Highs State Lows

Community

WunderPhotos

Upload Photos

1,753,717 photos uploaded!

WunderBlogs® & News

Nearby

Snow Depth

Station Depth Elevation
No new snow has been reported.

Earthquake Activity

City Distance Mag. Time & Date
No recent earthquake activity has been reported nearby.
Minimum magnitude displayed is 2.5.

Coastal Water Temperatures

Place Temperature
No Stations Reporting

Nearby Weather Stations